Time;durP1;ratioP1;P1;durP2;ratioP2;P2;SDS_P1;SDS_P2;PMS_P1;PMS_P2;Temp;Humidity;BMP_temperature;BMP_pressure;BME280_temperature;BME280_humidity;BME280_pressure;Samples;Min_cycle;Max_cycle;Signal;HPM_P1;HPM_P2
2023/06/22 00:01:48;;;;;;;;;;;;;;;;;;5141210;27;20437;-85
2023/06/22 00:04:15;;;;;;;;;;;;;;;;;;5124856;27;19923;-86
2023/06/22 00:06:43;;;;;;;;;;;;;;;;;;5126518;27;19935;-85
2023/06/22 00:09:10;;;;;;;;;;;;;;;;;;5126411;27;20402;-86
2023/06/22 00:11:38;;;;;;;;;;;;;;;;;;5132966;27;20302;-85
2023/06/22 00:14:05;;;;;;;;;;;;;;;;;;5131038;27;19927;-86
2023/06/22 00:16:33;;;;;;;;;;;;;;;;;;5123111;27;19931;-87
2023/06/22 00:19:02;;;;;;;;;;;;;;;;;;5131080;27;19927;-86
2023/06/22 00:21:30;;;;;;;;;;;;;;;;;;5121594;27;20386;-86
2023/06/22 00:23:58;;;;;;;;;;;;;;;;;;5121241;27;19923;-86
2023/06/22 00:26:25;;;;;;;;;;;;;;;;;;5147090;27;19930;-86
2023/06/22 00:28:53;;;;;;;;;;;;;;;;;;5143047;27;19930;-86
2023/06/22 00:31:20;;;;;;;;;;;;;;;;;;5122851;27;19923;-86
2023/06/22 00:33:50;;;;;;;;;;;;;;;;;;5123654;27;19927;-85
2023/06/22 00:36:18;;;;;;;;;;;;;;;;;;5141864;27;19927;-86
2023/06/22 00:38:46;;;;;;;;;;;;;;;;;;5130348;27;19923;-86
2023/06/22 00:41:14;;;;;;;;;;;;;;;;;;5131426;27;20393;-86
2023/06/22 00:43:42;;;;;;;;;;;;;;;;;;5119467;27;19931;-86
2023/06/22 00:46:09;;;;;;;;;;;;;;;;;;5132554;27;19934;-86
2023/06/22 00:48:37;;;;;;;;;;;;;;;;;;5122678;27;19923;-86
2023/06/22 00:51:05;;;;;;;;;;;;;;;;;;5134072;27;19923;-86
2023/06/22 00:53:34;;;;;;;;;;;;;;;;;;5126517;27;19928;-86
2023/06/22 00:56:03;;;;;;;;;;;;;;;;;;5124582;27;19927;-87
2023/06/22 00:58:30;;;;;;;;;;;;;;;;;;5134431;27;19923;-87
2023/06/22 01:00:58;;;;;;;;;;;;;;;;;;5127785;27;19923;-87
2023/06/22 01:03:27;;;;;;;;;;;;;;;;;;5125021;27;19933;-86
2023/06/22 01:05:56;;;;;;;;;;;;;;;;;;5133322;27;19946;-87
2023/06/22 01:08:23;;;;;;;;;;;;;;;;;;5122294;27;19924;-87
2023/06/22 01:10:51;;;;;;;;;;;;;;;;;;5145142;27;19931;-87
2023/06/22 01:13:19;;;;;;;;;;;;;;;;;;5123770;27;19923;-86
2023/06/22 01:15:49;;;;;;;;;;;;;;;;;;5149827;27;19924;-85
2023/06/22 01:18:16;;;;;;;;;;;;;;;;;;5130787;27;20651;-87
2023/06/22 01:20:44;;;;;;;;;;;;;;;;;;5128303;27;20272;-86
2023/06/22 01:23:11;;;;;;;;;;;;;;;;;;5123657;27;19931;-87
2023/06/22 01:25:44;;;;;;;;;;;;;;;;;;5125145;27;19934;-85
2023/06/22 01:28:14;;;;;;;;;;;;;;;;;;5126009;27;19938;-86
2023/06/22 01:30:42;;;;;;;;;;;;;;;;;;5147571;27;20392;-86
2023/06/22 01:33:09;;;;;;;;;;;;;;;;;;5130501;27;19950;-88
2023/06/22 01:35:37;;;;;;;;;;;;;;;;;;5135216;27;19935;-89
2023/06/22 01:38:09;;;;;;;;;;;;;;;;;;5128892;27;20287;-88
2023/06/22 01:40:37;;;;;;;;;;;;;;;;;;5126573;27;20391;-88
2023/06/22 01:43:05;;;;;;;;;;;;;;;;;;5129313;27;19935;-88
2023/06/22 01:45:33;;;;;;;;;;;;;;;;;;5142577;27;19938;-89
2023/06/22 01:48:00;;;;;;;;;;;;;;;;;;5129792;27;19927;-89
2023/06/22 01:50:28;;;;;;;;;;;;;;;;;;5127204;27;19938;-88
2023/06/22 01:52:56;;;;;;;;;;;;;;;;;;5128644;27;19927;-89
2023/06/22 01:55:23;;;;;;;;;;;;;;;;;;5131686;27;19923;-88
2023/06/22 01:57:51;;;;;;;;;;;;;;;;;;5130111;27;19927;-88
2023/06/22 02:00:19;;;;;;;;;;;;;;;;;;5144439;27;19927;-88
2023/06/22 02:02:46;;;;;;;;;;;;;;;;;;5130010;27;19923;-89
2023/06/22 02:05:14;;;;;;;;;;;;;;;;;;5126958;27;19924;-88
2023/06/22 02:07:41;;;;;;;;;;;;;;;;;;5129902;27;19955;-88
2023/06/22 02:10:09;;;;;;;;;;;;;;;;;;5132260;27;19924;-88
2023/06/22 02:12:36;;;;;;;;;;;;;;;;;;5136392;27;19930;-88
2023/06/22 02:15:09;;;;;;;;;;;;;;;;;;5125835;27;19934;-88
2023/06/22 02:17:36;;;;;;;;;;;;;;;;;;5134530;27;20586;-89
2023/06/22 02:20:08;;;;;;;;;;;;;;;;;;5122730;27;19934;-88
2023/06/22 02:22:36;;;;;;;;;;;;;;;;;;5145029;27;20674;-88
2023/06/22 02:25:03;;;;;;;;;;;;;;;;;;5126851;27;19923;-89
2023/06/22 02:27:36;;;;;;;;;;;;;;;;;;5129781;27;19938;-88
2023/06/22 02:30:03;;;;;;;;;;;;;;;;;;5133920;27;20374;-88
2023/06/22 02:32:34;;;;;;;;;;;;;;;;;;5132000;27;19927;-89
2023/06/22 02:35:03;;;;;;;;;;;;;;;;;;5129559;27;19927;-89
2023/06/22 02:37:31;;;;;;;;;;;;;;;;;;5123109;27;19923;-88
2023/06/22 02:39:59;;;;;;;;;;;;;;;;;;5126602;27;19923;-88
2023/06/22 02:42:31;;;;;;;;;;;;;;;;;;5123705;27;20287;-89
2023/06/22 02:44:59;;;;;;;;;;;;;;;;;;5123895;27;19931;-87
2023/06/22 02:47:26;;;;;;;;;;;;;;;;;;5123082;27;19927;-87
2023/06/22 02:49:54;;;;;;;;;;;;;;;;;;5132286;27;19927;-87
2023/06/22 02:52:22;;;;;;;;;;;;;;;;;;5127825;27;19927;-87
2023/06/22 02:54:50;;;;;;;;;;;;;;;;;;5127020;27;20554;-90
2023/06/22 02:57:22;;;;;;;;;;;;;;;;;;5131446;27;19934;-89
2023/06/22 02:59:55;;;;;;;;;;;;;;;;;;5126550;27;20291;-87
2023/06/22 03:02:22;;;;;;;;;;;;;;;;;;5129970;27;19930;-89
2023/06/22 03:04:50;;;;;;;;;;;;;;;;;;5125305;27;19927;-88
2023/06/22 03:07:18;;;;;;;;;;;;;;;;;;5141960;27;19923;-88
2023/06/22 03:09:46;;;;;;;;;;;;;;;;;;5129290;27;19932;-88
2023/06/22 03:12:13;;;;;;;;;;;;;;;;;;5124115;27;19935;-89
2023/06/22 03:14:48;;;;;;;;;;;;;;;;;;5132515;27;19923;-88
2023/06/22 03:17:16;;;;;;;;;;;;;;;;;;5121651;27;19923;-89
2023/06/22 03:19:43;;;;;;;;;;;;;;;;;;5122375;27;19930;-87
2023/06/22 03:22:11;;;;;;;;;;;;;;;;;;5130340;27;19924;-88
2023/06/22 03:24:43;;;;;;;;;;;;;;;;;;5120810;27;19939;-88
2023/06/22 03:27:11;;;;;;;;;;;;;;;;;;5144939;27;19938;-90
2023/06/22 03:29:40;;;;;;;;;;;;;;;;;;5133948;27;19923;-88
2023/06/22 03:32:07;;;;;;;;;;;;;;;;;;5127938;27;19930;-87
2023/06/22 03:34:36;;;;;;;;;;;;;;;;;;5131658;27;19924;-89
2023/06/22 03:37:04;;;;;;;;;;;;;;;;;;5126615;27;19931;-88
2023/06/22 03:39:31;;;;;;;;;;;;;;;;;;5128137;27;19927;-88
2023/06/22 03:41:59;;;;;;;;;;;;;;;;;;5131040;27;19927;-87
2023/06/22 03:44:26;;;;;;;;;;;;;;;;;;5149099;27;19927;-90
2023/06/22 03:46:54;;;;;;;;;;;;;;;;;;5132834;27;19938;-89
2023/06/22 03:49:22;;;;;;;;;;;;;;;;;;5122317;27;19928;-88
2023/06/22 03:51:49;;;;;;;;;;;;;;;;;;5147499;27;19930;-88
2023/06/22 03:54:17;;;;;;;;;;;;;;;;;;5129155;27;19923;-89
2023/06/22 03:56:44;;;;;;;;;;;;;;;;;;5141456;27;19923;-90
2023/06/22 03:59:12;;;;;;;;;;;;;;;;;;5147877;27;20039;-88
2023/06/22 04:01:40;;;;;;;;;;;;;;;;;;5125502;27;19930;-88
2023/06/22 04:04:07;;;;;;;;;;;;;;;;;;5129584;27;19924;-88
2023/06/22 04:06:35;;;;;;;;;;;;;;;;;;5132008;27;19927;-88
2023/06/22 04:09:02;;;;;;;;;;;;;;;;;;5133391;27;19923;-89
2023/06/22 04:11:30;;;;;;;;;;;;;;;;;;5147388;27;19924;-88
2023/06/22 04:13:58;;;;;;;;;;;;;;;;;;5125179;27;20298;-88
2023/06/22 04:16:25;;;;;;;;;;;;;;;;;;5131183;27;19927;-88
2023/06/22 04:18:53;;;;;;;;;;;;;;;;;;5131313;27;19931;-88
2023/06/22 04:21:20;;;;;;;;;;;;;;;;;;5120407;27;19923;-88
2023/06/22 04:23:53;;;;;;;;;;;;;;;;;;5149213;27;19955;-89
2023/06/22 04:26:21;;;;;;;;;;;;;;;;;;5133553;27;19927;-90
2023/06/22 04:28:51;;;;;;;;;;;;;;;;;;5141643;27;19930;-88
2023/06/22 04:31:19;;;;;;;;;;;;;;;;;;5119492;27;19927;-89
2023/06/22 04:33:47;;;;;;;;;;;;;;;;;;5142829;27;20608;-89
2023/06/22 04:36:14;;;;;;;;;;;;;;;;;;5134085;27;19972;-89
2023/06/22 04:38:44;;;;;;;;;;;;;;;;;;5123477;27;20405;-91
2023/06/22 04:41:23;;;;;;;;;;;;;;;;;;5132143;27;19927;-88
2023/06/22 04:43:53;;;;;;;;;;;;;;;;;;5135780;27;20287;-87
2023/06/22 04:46:21;;;;;;;;;;;;;;;;;;5127899;27;20000;-88
2023/06/22 04:48:49;;;;;;;;;;;;;;;;;;5129771;27;19930;-90
2023/06/22 04:51:16;;;;;;;;;;;;;;;;;;5131253;27;19927;-89
2023/06/22 04:53:44;;;;;;;;;;;;;;;;;;5125547;27;19923;-88
2023/06/22 04:56:11;;;;;;;;;;;;;;;;;;5130391;27;19946;-89
2023/06/22 04:58:39;;;;;;;;;;;;;;;;;;5120282;27;19930;-90
2023/06/22 05:01:08;;;;;;;;;;;;;;;;;;5145880;27;19927;-88
2023/06/22 05:03:36;;;;;;;;;;;;;;;;;;5122559;27;19927;-88
2023/06/22 05:06:04;;;;;;;;;;;;;;;;;;5130304;27;19928;-88
2023/06/22 05:08:32;;;;;;;;;;;;;;;;;;5126301;27;19923;-88
2023/06/22 05:11:00;;;;;;;;;;;;;;;;;;5130905;27;20405;-89
2023/06/22 05:13:27;;;;;;;;;;;;;;;;;;5142146;27;19927;-88
2023/06/22 05:16:01;;;;;;;;;;;;;;;;;;5126574;27;19927;-89
2023/06/22 05:18:29;;;;;;;;;;;;;;;;;;5128420;27;19927;-90
2023/06/22 05:20:56;;;;;;;;;;;;;;;;;;5136772;27;19931;-88
2023/06/22 05:23:24;;;;;;;;;;;;;;;;;;5129876;27;19927;-89
2023/06/22 05:25:57;;;;;;;;;;;;;;;;;;5125219;27;19927;-90
2023/06/22 05:28:25;;;;;;;;;;;;;;;;;;5128485;27;19923;-89
2023/06/22 05:30:52;;;;;;;;;;;;;;;;;;5132681;27;19923;-89
2023/06/22 05:33:25;;;;;;;;;;;;;;;;;;5139117;27;21203;-91
2023/06/22 05:35:52;;;;;;;;;;;;;;;;;;5140646;27;19977;-88
2023/06/22 05:38:25;;;;;;;;;;;;;;;;;;5128953;28;19939;-90
2023/06/22 05:40:53;;;;;;;;;;;;;;;;;;5127566;27;19937;-90
2023/06/22 05:43:20;;;;;;;;;;;;;;;;;;5132247;27;19923;-89
2023/06/22 05:45:48;;;;;;;;;;;;;;;;;;5150419;27;20613;-90
2023/06/22 05:48:15;;;;;;;;;;;;;;;;;;5132810;27;19927;-89
2023/06/22 05:50:43;;;;;;;;;;;;;;;;;;5121279;27;19927;-89
2023/06/22 05:53:10;;;;;;;;;;;;;;;;;;5128796;27;19927;-88
2023/06/22 05:55:38;;;;;;;;;;;;;;;;;;5126647;27;19927;-88
2023/06/22 05:58:10;;;;;;;;;;;;;;;;;;5126366;27;19938;-88
2023/06/22 06:00:38;;;;;;;;;;;;;;;;;;5123736;27;19931;-88
2023/06/22 06:03:06;;;;;;;;;;;;;;;;;;5130728;27;19927;-90
2023/06/22 06:05:33;;;;;;;;;;;;;;;;;;5126185;27;19937;-88
2023/06/22 06:08:06;;;;;;;;;;;;;;;;;;5128413;27;19924;-87
2023/06/22 06:10:33;;;;;;;;;;;;;;;;;;5122739;27;19927;-89
2023/06/22 06:13:04;;;;;;;;;;;;;;;;;;5130083;27;19938;-87
2023/06/22 06:15:31;;;;;;;;;;;;;;;;;;5133761;27;20403;-90
2023/06/22 06:17:59;;;;;;;;;;;;;;;;;;5143890;27;19923;-88
2023/06/22 06:20:27;;;;;;;;;;;;;;;;;;5131594;27;20666;-87
2023/06/22 06:22:55;;;;;;;;;;;;;;;;;;5126199;27;20777;-88
2023/06/22 06:25:27;;;;;;;;;;;;;;;;;;5129303;27;19930;-88
2023/06/22 06:27:56;;;;;;;;;;;;;;;;;;5135013;27;20277;-86
2023/06/22 06:30:23;;;;;;;;;;;;;;;;;;5131620;27;19934;-86
2023/06/22 06:32:51;;;;;;;;;;;;;;;;;;5131230;27;20392;-87
2023/06/22 06:35:18;;;;;;;;;;;;;;;;;;5129805;27;19950;-86
2023/06/22 06:37:46;;;;;;;;;;;;;;;;;;5126851;27;19937;-83
2023/06/22 06:40:14;;;;;;;;;;;;;;;;;;5122985;27;19927;-83
2023/06/22 06:42:41;;;;;;;;;;;;;;;;;;5125438;27;20990;-82
2023/06/22 06:45:14;;;;;;;;;;;;;;;;;;5139211;27;19924;-82
2023/06/22 06:47:46;;;;;;;;;;;;;;;;;;5144824;27;19934;-82
2023/06/22 06:50:14;;;;;;;;;;;;;;;;;;5130198;27;19939;-80
2023/06/22 06:52:42;;;;;;;;;;;;;;;;;;5138902;27;20294;-79
2023/06/22 06:55:11;;;;;;;;;;;;;;;;;;5139870;27;19924;-89
2023/06/22 06:57:39;;;;;;;;;;;;;;;;;;5125260;27;20404;-85
2023/06/22 07:00:10;;;;;;;;;;;;;;;;;;5129829;27;19930;-86
2023/06/22 07:02:38;;;;;;;;;;;;;;;;;;5138060;27;19927;-84
2023/06/22 07:05:11;;;;;;;;;;;;;;;;;;5142815;27;19969;-84
2023/06/22 07:07:50;;;;;;;;;;;;;;;;;;5127460;27;19931;-88
2023/06/22 07:10:18;;;;;;;;;;;;;;;;;;5122050;27;19930;-89
2023/06/22 07:12:45;;;;;;;;;;;;;;;;;;5145555;27;19980;-90
2023/06/22 07:15:13;;;;;;;;;;;;;;;;;;5132390;27;19946;-83
2023/06/22 07:17:41;;;;;;;;;;;;;;;;;;5148119;27;19930;-87
2023/06/22 07:20:10;;;;;;;;;;;;;;;;;;5127751;27;19923;-86
2023/06/22 07:22:37;;;;;;;;;;;;;;;;;;5126048;27;20362;-87
2023/06/22 07:25:09;;;;;;;;;;;;;;;;;;5129339;27;19934;-85
2023/06/22 07:27:42;;;;;;;;;;;;;;;;;;5148832;27;19926;-86
2023/06/22 07:30:10;;;;;;;;;;;;;;;;;;5122334;27;19927;-86
2023/06/22 07:32:37;;;;;;;;;;;;;;;;;;5102745;27;19953;-87
2023/06/22 07:35:06;;;;;;;;;;;;;;;;;;5100556;27;19923;-84
2023/06/22 07:37:34;;;;;;;;;;;;;;;;;;5123557;27;19939;-88
2023/06/22 07:40:08;;;;;;;;;;;;;;;;;;5126198;27;19931;-85
2023/06/22 07:42:40;;;;;;;;;;;;;;;;;;5106662;27;20401;-86
2023/06/22 07:45:08;;;;;;;;;;;;;;;;;;5121843;27;20631;-86
2023/06/22 07:47:53;;;;;;;;;;;;;;;;;;5103123;27;19932;-85
2023/06/22 07:50:39;;;;;;;;;;;;;;;;;;5102435;27;19931;-86
2023/06/22 07:53:06;;;;;;;;;;;;;;;;;;5101286;27;19931;-83
2023/06/22 07:55:34;;;;;;;;;;;;;;;;;;5093374;27;19931;-81
2023/06/22 07:58:01;;;;;;;;;;;;;;;;;;5104162;27;19931;-87
2023/06/22 08:56:07;;;;;;;;;;;;;;;;;;4906327;29;20044;-86
2023/06/22 08:58:40;;;;;;;;;;;;;;;;;;4912153;29;19930;-86
2023/06/22 09:08:26;;;;;;;;;;;;;;;;;;4876370;29;20886;-87
2023/06/22 09:11:10;;;;;;;;;;;;;;;;;;4900061;28;19941;-87
2023/06/22 09:13:38;;;;;;;;;;;;;;;;;;4935211;28;19934;-88
2023/06/22 09:26:12;;;;;;;;;;;;;;;;;;4951734;28;19937;-88
2023/06/22 09:32:14;;;;;;;;;;;;;;;;;;4983656;27;19967;-87
2023/06/22 09:34:43;;;;;;;;;;;;;;;;;;5094606;27;19931;-87
2023/06/22 09:37:11;;;;;;;;;;;;;;;;;;5118640;27;19931;-88
2023/06/22 09:39:38;;;;;;;;;;;;;;;;;;5100126;27;20470;-88
2023/06/22 09:42:06;;;;;;;;;;;;;;;;;;5093350;27;20288;-89
2023/06/22 09:44:34;;;;;;;;;;;;;;;;;;5110408;27;19923;-90
2023/06/22 09:47:19;;;;;;;;;;;;;;;;;;5098735;27;19931;-89
2023/06/22 09:49:47;;;;;;;;;;;;;;;;;;5100597;27;19938;-90
2023/06/22 09:52:14;;;;;;;;;;;;;;;;;;5108631;27;19932;-87
2023/06/22 09:54:42;;;;;;;;;;;;;;;;;;5118797;27;20619;-87
2023/06/22 09:57:10;;;;;;;;;;;;;;;;;;5097758;27;19926;-90
2023/06/22 09:59:39;;;;;;;;;;;;;;;;;;5099716;27;19931;-89
2023/06/22 10:02:07;;;;;;;;;;;;;;;;;;5108060;27;19938;-90
2023/06/22 10:04:40;;;;;;;;;;;;;;;;;;5094268;27;19938;-87
2023/06/22 10:07:08;;;;;;;;;;;;;;;;;;5117719;27;19931;-89
2023/06/22 10:09:35;;;;;;;;;;;;;;;;;;5107024;27;19931;-88
2023/06/22 10:12:03;;;;;;;;;;;;;;;;;;5125406;27;19934;-88
2023/06/22 10:14:31;;;;;;;;;;;;;;;;;;5120410;27;19931;-88
2023/06/22 10:16:58;;;;;;;;;;;;;;;;;;5051201;28;20561;-87
2023/06/22 10:19:26;;;;;;;;;;;;;;;;;;5053195;28;19932;-88
2023/06/22 10:21:54;;;;;;;;;;;;;;;;;;5057988;28;20301;-89
2023/06/22 10:24:22;;;;;;;;;;;;;;;;;;5076309;28;19940;-87
2023/06/22 10:26:49;;;;;;;;;;;;;;;;;;5054566;28;19932;-87
2023/06/22 10:29:17;;;;;;;;;;;;;;;;;;5070007;27;19932;-89
2023/06/22 10:31:44;;;;;;;;;;;;;;;;;;5063239;28;19958;-89
2023/06/22 10:34:12;;;;;;;;;;;;;;;;;;5053598;28;19959;-89
2023/06/22 10:36:40;;;;;;;;;;;;;;;;;;5085434;28;19943;-90
2023/06/22 10:39:08;;;;;;;;;;;;;;;;;;5083259;28;20166;-88
2023/06/22 10:41:36;;;;;;;;;;;;;;;;;;5062289;28;19932;-90
2023/06/22 10:44:04;;;;;;;;;;;;;;;;;;5059012;28;19932;-87
2023/06/22 10:46:31;;;;;;;;;;;;;;;;;;5079787;28;20971;-89
2023/06/22 10:48:59;;;;;;;;;;;;;;;;;;5061167;28;19932;-88
2023/06/22 10:51:28;;;;;;;;;;;;;;;;;;5075551;28;19928;-90
2023/06/22 10:53:55;;;;;;;;;;;;;;;;;;5064930;28;19928;-89
2023/06/22 10:56:23;;;;;;;;;;;;;;;;;;5078697;28;20403;-90
2023/06/22 10:58:50;;;;;;;;;;;;;;;;;;5065539;28;20156;-90
2023/06/22 11:01:18;;;;;;;;;;;;;;;;;;5067255;28;19931;-89
2023/06/22 11:03:47;;;;;;;;;;;;;;;;;;5083627;28;19932;-89
2023/06/22 11:06:15;;;;;;;;;;;;;;;;;;5083876;28;19931;-89
2023/06/22 11:08:42;;;;;;;;;;;;;;;;;;5070338;28;19955;-90
2023/06/22 11:11:15;;;;;;;;;;;;;;;;;;5066911;28;19939;-90
2023/06/22 11:13:42;;;;;;;;;;;;;;;;;;5073977;28;19932;-89
2023/06/22 11:16:10;;;;;;;;;;;;;;;;;;5068493;28;19928;-90
2023/06/22 11:18:37;;;;;;;;;;;;;;;;;;5084184;28;21528;-89
2023/06/22 11:21:05;;;;;;;;;;;;;;;;;;5071716;28;19932;-92
2023/06/22 11:23:35;;;;;;;;;;;;;;;;;;5071356;28;19932;-89
2023/06/22 11:26:03;;;;;;;;;;;;;;;;;;5081334;28;19943;-88
2023/06/22 11:28:30;;;;;;;;;;;;;;;;;;5067142;28;19932;-92
2023/06/22 11:30:58;;;;;;;;;;;;;;;;;;5039205;28;19932;-87
2023/06/22 11:33:26;;;;;;;;;;;;;;;;;;5064783;28;19932;-89
2023/06/22 11:35:56;;;;;;;;;;;;;;;;;;5058477;28;20562;-92
2023/06/22 11:38:23;;;;;;;;;;;;;;;;;;5078285;28;19939;-89
2023/06/22 11:40:51;;;;;;;;;;;;;;;;;;5060900;28;19932;-90
2023/06/22 11:43:19;;;;;;;;;;;;;;;;;;5090049;28;19932;-92
2023/06/22 11:45:46;;;;;;;;;;;;;;;;;;5069137;28;20297;-89
2023/06/22 11:48:14;;;;;;;;;;;;;;;;;;5088501;28;19932;-91
2023/06/22 11:50:42;;;;;;;;;;;;;;;;;;5090951;28;20653;-90
2023/06/22 11:53:10;;;;;;;;;;;;;;;;;;5084550;28;19939;-91
2023/06/22 11:55:37;;;;;;;;;;;;;;;;;;5070194;28;19932;-89
2023/06/22 11:58:06;;;;;;;;;;;;;;;;;;5068390;28;20657;-90
2023/06/22 12:00:33;;;;;;;;;;;;;;;;;;5069525;28;19932;-89
2023/06/22 12:03:01;;;;;;;;;;;;;;;;;;5065744;28;19939;-89
2023/06/22 12:05:29;;;;;;;;;;;;;;;;;;5063233;28;21081;-92
2023/06/22 12:07:56;;;;;;;;;;;;;;;;;;5059623;28;19943;-90
2023/06/22 12:10:24;;;;;;;;;;;;;;;;;;5065479;28;20219;-89
2023/06/22 12:12:52;;;;;;;;;;;;;;;;;;5064284;28;19943;-92
2023/06/22 12:15:19;;;;;;;;;;;;;;;;;;5061133;28;19932;-91
2023/06/22 12:17:48;;;;;;;;;;;;;;;;;;5083758;28;19939;-85
2023/06/22 12:20:15;;;;;;;;;;;;;;;;;;5086342;28;19928;-93
2023/06/22 12:22:43;;;;;;;;;;;;;;;;;;5072030;28;19932;-89
2023/06/22 12:25:11;;;;;;;;;;;;;;;;;;5084791;28;19932;-87
2023/06/22 12:27:38;;;;;;;;;;;;;;;;;;5069146;28;19936;-91
2023/06/22 12:30:06;;;;;;;;;;;;;;;;;;5080862;28;19940;-90
2023/06/22 12:32:33;;;;;;;;;;;;;;;;;;5053005;28;19943;-89
2023/06/22 12:35:01;;;;;;;;;;;;;;;;;;5085580;28;19932;-85
2023/06/22 12:37:31;;;;;;;;;;;;;;;;;;5077830;28;19928;-85
2023/06/22 12:39:58;;;;;;;;;;;;;;;;;;5070937;28;19955;-87
2023/06/22 12:42:28;;;;;;;;;;;;;;;;;;5069864;28;19932;-85
2023/06/22 12:44:55;;;;;;;;;;;;;;;;;;5086546;28;19932;-84
2023/06/22 12:47:23;;;;;;;;;;;;;;;;;;5066783;28;19931;-85
2023/06/22 12:49:50;;;;;;;;;;;;;;;;;;5068593;28;19932;-86
2023/06/22 12:52:18;;;;;;;;;;;;;;;;;;5084389;28;19933;-84
2023/06/22 12:54:48;;;;;;;;;;;;;;;;;;5064224;28;19932;-85
2023/06/22 12:57:17;;;;;;;;;;;;;;;;;;5078936;28;19932;-85
2023/06/22 12:59:45;;;;;;;;;;;;;;;;;;5065200;28;19932;-83
2023/06/22 13:02:13;;;;;;;;;;;;;;;;;;5067319;28;19927;-84
2023/06/22 13:04:45;;;;;;;;;;;;;;;;;;5071980;28;19943;-85
2023/06/22 13:07:13;;;;;;;;;;;;;;;;;;5066950;28;19932;-84
2023/06/22 13:09:46;;;;;;;;;;;;;;;;;;5065255;28;19928;-86
2023/06/22 13:12:15;;;;;;;;;;;;;;;;;;5067055;28;19939;-91
2023/06/22 13:14:43;;;;;;;;;;;;;;;;;;5068720;28;20150;-92
2023/06/22 13:17:10;;;;;;;;;;;;;;;;;;5083296;28;19955;-92
2023/06/22 13:19:38;;;;;;;;;;;;;;;;;;5088302;28;19932;-92
2023/06/22 13:22:07;;;;;;;;;;;;;;;;;;5086706;28;19939;-91
2023/06/22 13:24:34;;;;;;;;;;;;;;;;;;5083313;28;20287;-91
2023/06/22 13:30:31;;;;;;;;;;;;;;;;;;5045151;28;19947;-89
2023/06/22 13:36:30;;;;;;;;;;;;;;;;;;5065795;28;19927;-90
2023/06/22 13:38:58;;;;;;;;;;;;;;;;;;5084718;28;19932;-91
2023/06/22 13:41:25;;;;;;;;;;;;;;;;;;5085950;28;19932;-91
2023/06/22 13:43:53;;;;;;;;;;;;;;;;;;5087508;28;19928;-90
2023/06/22 13:49:36;;;;;;;;;;;;;;;;;;4990443;28;19940;-90
2023/06/22 13:52:06;;;;;;;;;;;;;;;;;;5048498;28;19932;-88
2023/06/22 13:54:34;;;;;;;;;;;;;;;;;;5090721;28;20224;-89
2023/06/22 13:57:01;;;;;;;;;;;;;;;;;;5083381;28;19939;-87
2023/06/22 13:59:29;;;;;;;;;;;;;;;;;;5058774;28;19943;-87
2023/06/22 14:01:57;;;;;;;;;;;;;;;;;;5075858;28;20920;-86
2023/06/22 14:11:10;;;;;;;;;;;;;;;;;;5072830;28;20599;-90
2023/06/22 14:13:43;;;;;;;;;;;;;;;;;;5072007;28;19932;-86
2023/06/22 14:16:11;;;;;;;;;;;;;;;;;;5068462;28;19924;-89
2023/06/22 14:18:38;;;;;;;;;;;;;;;;;;5077555;28;19939;-88
2023/06/22 14:21:11;;;;;;;;;;;;;;;;;;5073174;28;19932;-87
2023/06/22 14:23:38;;;;;;;;;;;;;;;;;;5071285;28;20631;-89
2023/06/22 14:26:06;;;;;;;;;;;;;;;;;;5084925;28;19932;-89
2023/06/22 14:28:39;;;;;;;;;;;;;;;;;;5088704;28;19939;-88
2023/06/22 14:31:06;;;;;;;;;;;;;;;;;;5041992;28;19939;-87
2023/06/22 14:33:34;;;;;;;;;;;;;;;;;;5074672;28;19932;-85
2023/06/22 14:36:01;;;;;;;;;;;;;;;;;;5086493;28;19932;-89
2023/06/22 14:38:29;;;;;;;;;;;;;;;;;;5087733;28;19939;-89
2023/06/22 14:41:02;;;;;;;;;;;;;;;;;;5072712;28;19932;-87
2023/06/22 14:43:30;;;;;;;;;;;;;;;;;;5077558;28;19938;-91
2023/06/22 14:45:57;;;;;;;;;;;;;;;;;;5086855;28;20360;-87
2023/06/22 14:48:25;;;;;;;;;;;;;;;;;;5092198;28;19943;-90
2023/06/22 14:50:53;;;;;;;;;;;;;;;;;;5075414;28;19932;-90
2023/06/22 14:53:21;;;;;;;;;;;;;;;;;;5068888;28;21163;-89
2023/06/22 14:55:49;;;;;;;;;;;;;;;;;;5068721;28;19932;-90
2023/06/22 14:58:16;;;;;;;;;;;;;;;;;;5086212;28;19932;-91
2023/06/22 15:00:44;;;;;;;;;;;;;;;;;;5086178;28;21317;-90
2023/06/22 15:03:16;;;;;;;;;;;;;;;;;;5067716;28;19938;-89
2023/06/22 15:05:44;;;;;;;;;;;;;;;;;;5083295;28;20647;-90
2023/06/22 15:08:11;;;;;;;;;;;;;;;;;;5068026;28;20316;-89
2023/06/22 15:10:39;;;;;;;;;;;;;;;;;;5090475;28;21563;-93
2023/06/22 15:13:07;;;;;;;;;;;;;;;;;;5072329;28;20508;-89
2023/06/22 15:15:34;;;;;;;;;;;;;;;;;;5075404;28;20460;-90
2023/06/22 15:18:02;;;;;;;;;;;;;;;;;;5086078;27;19939;-92
2023/06/22 15:20:29;;;;;;;;;;;;;;;;;;5083030;28;19939;-91
2023/06/22 15:22:57;;;;;;;;;;;;;;;;;;5082153;28;19940;-92
2023/06/22 15:25:25;;;;;;;;;;;;;;;;;;5114489;27;19927;-91
2023/06/22 15:27:52;;;;;;;;;;;;;;;;;;5085149;28;19932;-92
2023/06/22 15:30:20;;;;;;;;;;;;;;;;;;5081547;28;19940;-90
2023/06/22 15:32:49;;;;;;;;;;;;;;;;;;5056638;28;19950;-92
2023/06/22 15:35:18;;;;;;;;;;;;;;;;;;5080264;28;19931;-91
2023/06/22 15:37:46;;;;;;;;;;;;;;;;;;5086815;28;19932;-90
2023/06/22 15:40:16;;;;;;;;;;;;;;;;;;5082973;28;19939;-90
2023/06/22 15:42:45;;;;;;;;;;;;;;;;;;5082299;28;20390;-90
2023/06/22 15:45:12;;;;;;;;;;;;;;;;;;5079438;28;19928;-91
2023/06/22 15:47:41;;;;;;;;;;;;;;;;;;5093167;28;19939;-91
2023/06/22 15:50:08;;;;;;;;;;;;;;;;;;5098954;27;19932;-92
2023/06/22 15:52:36;;;;;;;;;;;;;;;;;;5079394;28;19939;-89
2023/06/22 15:55:04;;;;;;;;;;;;;;;;;;5088637;28;19932;-90
2023/06/22 15:57:31;;;;;;;;;;;;;;;;;;5090416;28;20052;-87
2023/06/22 15:59:59;;;;;;;;;;;;;;;;;;5083486;28;19931;-91
2023/06/22 16:02:28;;;;;;;;;;;;;;;;;;5085809;28;19932;-90
2023/06/22 16:04:56;;;;;;;;;;;;;;;;;;5080172;28;19924;-90
2023/06/22 16:07:24;;;;;;;;;;;;;;;;;;5092298;28;19943;-91
2023/06/22 16:09:52;;;;;;;;;;;;;;;;;;5087145;27;19943;-90
2023/06/22 16:12:19;;;;;;;;;;;;;;;;;;5097162;27;19932;-89
2023/06/22 16:14:47;;;;;;;;;;;;;;;;;;5105012;27;19947;-90
2023/06/22 16:17:14;;;;;;;;;;;;;;;;;;5096752;27;19943;-92
2023/06/22 16:19:42;;;;;;;;;;;;;;;;;;5082915;28;19932;-92
2023/06/22 16:22:10;;;;;;;;;;;;;;;;;;5084419;28;19932;-86
2023/06/22 16:24:39;;;;;;;;;;;;;;;;;;5098708;27;21422;-91
2023/06/22 16:27:08;;;;;;;;;;;;;;;;;;5085037;28;19931;-91
2023/06/22 16:29:36;;;;;;;;;;;;;;;;;;5081284;28;19969;-83
2023/06/22 16:32:03;;;;;;;;;;;;;;;;;;5051392;28;19943;-91
2023/06/22 16:34:31;;;;;;;;;;;;;;;;;;5079678;28;19927;-91
2023/06/22 16:36:59;;;;;;;;;;;;;;;;;;5094928;27;19932;-90
2023/06/22 16:39:27;;;;;;;;;;;;;;;;;;5094271;27;19932;-92
2023/06/22 16:41:55;;;;;;;;;;;;;;;;;;5089458;27;20291;-89
2023/06/22 16:44:22;;;;;;;;;;;;;;;;;;5075359;28;20786;-91
2023/06/22 16:46:50;;;;;;;;;;;;;;;;;;5074813;28;19932;-92
2023/06/22 16:49:17;;;;;;;;;;;;;;;;;;5086899;28;19932;-90
2023/06/22 16:51:45;;;;;;;;;;;;;;;;;;5108242;27;19939;-91
2023/06/22 16:54:13;;;;;;;;;;;;;;;;;;5093112;28;20315;-90
2023/06/22 16:56:40;;;;;;;;;;;;;;;;;;5097088;27;19931;-91
2023/06/22 16:59:08;;;;;;;;;;;;;;;;;;5083168;28;19932;-89
2023/06/22 17:01:37;;;;;;;;;;;;;;;;;;5076089;28;19931;-91
2023/06/22 17:04:05;;;;;;;;;;;;;;;;;;5095312;27;20724;-90
2023/06/22 17:06:33;;;;;;;;;;;;;;;;;;5079994;28;19935;-88
2023/06/22 17:09:00;;;;;;;;;;;;;;;;;;5078907;28;19938;-91
2023/06/22 17:11:28;;;;;;;;;;;;;;;;;;5083429;28;19950;-87
2023/06/22 17:13:55;;;;;;;;;;;;;;;;;;5092164;28;20401;-93
2023/06/22 17:16:23;;;;;;;;;;;;;;;;;;5074945;28;19939;-90
2023/06/22 17:18:51;;;;;;;;;;;;;;;;;;5079138;28;20606;-92
2023/06/22 17:21:18;;;;;;;;;;;;;;;;;;5088735;27;19931;-90
2023/06/22 17:23:46;;;;;;;;;;;;;;;;;;5077957;28;19932;-90
2023/06/22 17:26:14;;;;;;;;;;;;;;;;;;5079920;28;19932;-90
2023/06/22 17:28:42;;;;;;;;;;;;;;;;;;5075371;28;20018;-90
2023/06/22 17:31:10;;;;;;;;;;;;;;;;;;5052846;28;19928;-90
2023/06/22 17:33:38;;;;;;;;;;;;;;;;;;5096827;28;21202;-90
2023/06/22 17:36:05;;;;;;;;;;;;;;;;;;5076812;28;19939;-90
2023/06/22 17:38:33;;;;;;;;;;;;;;;;;;5079441;28;20307;-90
2023/06/22 17:41:02;;;;;;;;;;;;;;;;;;5088585;28;19954;-90
2023/06/22 17:43:29;;;;;;;;;;;;;;;;;;5082539;28;19967;-90
2023/06/22 17:45:57;;;;;;;;;;;;;;;;;;5078833;28;19932;-88
2023/06/22 17:48:29;;;;;;;;;;;;;;;;;;5084121;28;20334;-87
2023/06/22 17:50:57;;;;;;;;;;;;;;;;;;5091575;28;19932;-91
2023/06/22 17:53:24;;;;;;;;;;;;;;;;;;5083970;28;19944;-91
2023/06/22 17:55:52;;;;;;;;;;;;;;;;;;5080534;28;19939;-91
2023/06/22 17:58:20;;;;;;;;;;;;;;;;;;5090705;28;19939;-94
2023/06/22 18:00:48;;;;;;;;;;;;;;;;;;5087704;28;19932;-93
2023/06/22 18:03:15;;;;;;;;;;;;;;;;;;5083865;28;19942;-90
2023/06/22 18:05:43;;;;;;;;;;;;;;;;;;5084275;28;19932;-92
2023/06/22 18:08:28;;;;;;;;;;;;;;;;;;5085708;28;19933;-91
2023/06/22 18:10:56;;;;;;;;;;;;;;;;;;5105590;27;21246;-93
2023/06/22 18:13:23;;;;;;;;;;;;;;;;;;5081525;28;19931;-91
2023/06/22 18:15:51;;;;;;;;;;;;;;;;;;5086518;28;19932;-92
2023/06/22 18:18:19;;;;;;;;;;;;;;;;;;5111313;27;19932;-91
2023/06/22 18:20:47;;;;;;;;;;;;;;;;;;5089925;28;19935;-92
2023/06/22 18:23:14;;;;;;;;;;;;;;;;;;5091938;28;19932;-92
2023/06/22 18:25:44;;;;;;;;;;;;;;;;;;5110752;27;20403;-90
2023/06/22 18:28:12;;;;;;;;;;;;;;;;;;5082646;28;20414;-92